sensor_id;sensor_type;location;lat;lon;timestamp;P1;durP1;ratioP1;P2;durP2;ratioP2
12120;SDS011;6124;59.460;17.908;2023-02-12T00:00:43;5.43;;;2.13;;
12120;SDS011;6124;59.460;17.908;2023-02-12T00:03:11;7.27;;;2.20;;
12120;SDS011;6124;59.460;17.908;2023-02-12T00:05:38;4.60;;;1.90;;
12120;SDS011;6124;59.460;17.908;2023-02-12T00:08:06;4.83;;;2.30;;
12120;SDS011;6124;59.460;17.908;2023-02-12T00:10:38;5.13;;;1.80;;
12120;SDS011;6124;59.460;17.908;2023-02-12T00:13:07;4.60;;;1.97;;
12120;SDS011;6124;59.460;17.908;2023-02-12T00:15:37;5.00;;;2.10;;
12120;SDS011;6124;59.460;17.908;2023-02-12T00:18:05;4.20;;;1.70;;
12120;SDS011;6124;59.460;17.908;2023-02-12T00:20:33;2.37;;;1.53;;
12120;SDS011;6124;59.460;17.908;2023-02-12T00:23:00;3.83;;;1.90;;
12120;SDS011;6124;59.460;17.908;2023-02-12T00:25:28;4.07;;;2.03;;
12120;SDS011;6124;59.460;17.908;2023-02-12T00:27:55;2.60;;;1.47;;
12120;SDS011;6124;59.460;17.908;2023-02-12T00:30:22;3.40;;;2.10;;
12120;SDS011;6124;59.460;17.908;2023-02-12T00:32:50;4.83;;;1.90;;
12120;SDS011;6124;59.460;17.908;2023-02-12T00:35:18;5.70;;;2.20;;
12120;SDS011;6124;59.460;17.908;2023-02-12T00:37:46;4.83;;;1.60;;
12120;SDS011;6124;59.460;17.908;2023-02-12T00:40:13;6.10;;;1.90;;
12120;SDS011;6124;59.460;17.908;2023-02-12T00:42:41;5.00;;;1.80;;
12120;SDS011;6124;59.460;17.908;2023-02-12T00:45:08;3.00;;;2.10;;
12120;SDS011;6124;59.460;17.908;2023-02-12T00:47:35;3.03;;;1.87;;
12120;SDS011;6124;59.460;17.908;2023-02-12T00:50:03;3.27;;;1.80;;
12120;SDS011;6124;59.460;17.908;2023-02-12T00:52:32;4.00;;;1.70;;
12120;SDS011;6124;59.460;17.908;2023-02-12T00:54:59;4.77;;;1.80;;
12120;SDS011;6124;59.460;17.908;2023-02-12T00:57:26;5.53;;;1.90;;
12120;SDS011;6124;59.460;17.908;2023-02-12T00:59:54;4.13;;;2.17;;
12120;SDS011;6124;59.460;17.908;2023-02-12T01:02:21;6.37;;;2.17;;
12120;SDS011;6124;59.460;17.908;2023-02-12T01:04:48;2.93;;;1.97;;
12120;SDS011;6124;59.460;17.908;2023-02-12T01:07:15;3.97;;;1.67;;
12120;SDS011;6124;59.460;17.908;2023-02-12T01:09:44;5.47;;;1.80;;
12120;SDS011;6124;59.460;17.908;2023-02-12T01:12:12;3.43;;;1.67;;
12120;SDS011;6124;59.460;17.908;2023-02-12T01:14:39;4.93;;;2.10;;
12120;SDS011;6124;59.460;17.908;2023-02-12T01:17:06;2.97;;;1.80;;
12120;SDS011;6124;59.460;17.908;2023-02-12T01:19:34;5.60;;;2.00;;
12120;SDS011;6124;59.460;17.908;2023-02-12T01:22:01;5.17;;;2.07;;
12120;SDS011;6124;59.460;17.908;2023-02-12T01:24:28;3.07;;;1.70;;
12120;SDS011;6124;59.460;17.908;2023-02-12T01:26:57;4.17;;;1.73;;
12120;SDS011;6124;59.460;17.908;2023-02-12T01:29:24;5.67;;;2.00;;
12120;SDS011;6124;59.460;17.908;2023-02-12T01:31:52;3.67;;;1.80;;
12120;SDS011;6124;59.460;17.908;2023-02-12T01:34:19;2.80;;;1.33;;
12120;SDS011;6124;59.460;17.908;2023-02-12T01:36:46;5.17;;;2.07;;
12120;SDS011;6124;59.460;17.908;2023-02-12T01:39:14;5.07;;;1.90;;
12120;SDS011;6124;59.460;17.908;2023-02-12T01:41:42;4.57;;;1.90;;
12120;SDS011;6124;59.460;17.908;2023-02-12T01:44:13;6.20;;;1.97;;
12120;SDS011;6124;59.460;17.908;2023-02-12T01:46:41;3.33;;;1.70;;
12120;SDS011;6124;59.460;17.908;2023-02-12T01:49:11;5.17;;;1.70;;
12120;SDS011;6124;59.460;17.908;2023-02-12T01:51:38;3.67;;;1.47;;
12120;SDS011;6124;59.460;17.908;2023-02-12T01:54:07;3.47;;;1.47;;
12120;SDS011;6124;59.460;17.908;2023-02-12T01:56:36;5.90;;;1.80;;
12120;SDS011;6124;59.460;17.908;2023-02-12T01:59:03;2.37;;;1.60;;
12120;SDS011;6124;59.460;17.908;2023-02-12T02:01:32;9.07;;;1.83;;
12120;SDS011;6124;59.460;17.908;2023-02-12T02:04:01;5.27;;;1.53;;
12120;SDS011;6124;59.460;17.908;2023-02-12T02:06:32;4.03;;;1.90;;
12120;SDS011;6124;59.460;17.908;2023-02-12T02:09:00;4.63;;;1.50;;
12120;SDS011;6124;59.460;17.908;2023-02-12T02:11:28;5.17;;;1.90;;
12120;SDS011;6124;59.460;17.908;2023-02-12T02:14:13;3.63;;;1.60;;
12120;SDS011;6124;59.460;17.908;2023-02-12T02:19:47;3.50;;;1.50;;
12120;SDS011;6124;59.460;17.908;2023-02-12T02:22:19;2.53;;;1.60;;
12120;SDS011;6124;59.460;17.908;2023-02-12T02:24:51;2.77;;;1.50;;
12120;SDS011;6124;59.460;17.908;2023-02-12T02:27:21;2.97;;;1.40;;
12120;SDS011;6124;59.460;17.908;2023-02-12T02:32:45;2.63;;;1.30;;
12120;SDS011;6124;59.460;17.908;2023-02-12T02:35:14;1.97;;;1.20;;
12120;SDS011;6124;59.460;17.908;2023-02-12T02:37:45;5.23;;;1.70;;
12120;SDS011;6124;59.460;17.908;2023-02-12T02:40:15;2.07;;;1.27;;
12120;SDS011;6124;59.460;17.908;2023-02-12T02:42:45;2.83;;;1.30;;
12120;SDS011;6124;59.460;17.908;2023-02-12T02:45:14;5.33;;;1.53;;
12120;SDS011;6124;59.460;17.908;2023-02-12T02:47:43;3.20;;;1.40;;
12120;SDS011;6124;59.460;17.908;2023-02-12T02:50:14;2.53;;;1.20;;
12120;SDS011;6124;59.460;17.908;2023-02-12T02:52:45;3.87;;;1.20;;
12120;SDS011;6124;59.460;17.908;2023-02-12T02:55:13;5.50;;;1.73;;
12120;SDS011;6124;59.460;17.908;2023-02-12T02:57:44;2.50;;;1.33;;
12120;SDS011;6124;59.460;17.908;2023-02-12T03:00:13;3.57;;;1.63;;
12120;SDS011;6124;59.460;17.908;2023-02-12T03:02:42;5.90;;;1.37;;
12120;SDS011;6124;59.460;17.908;2023-02-12T03:05:13;3.30;;;1.03;;
12120;SDS011;6124;59.460;17.908;2023-02-12T03:07:43;1.37;;;0.90;;
12120;SDS011;6124;59.460;17.908;2023-02-12T03:10:14;2.53;;;0.90;;
12120;SDS011;6124;59.460;17.908;2023-02-12T03:12:44;4.83;;;1.60;;
12120;SDS011;6124;59.460;17.908;2023-02-12T03:15:14;3.83;;;1.30;;
12120;SDS011;6124;59.460;17.908;2023-02-12T03:17:44;2.40;;;1.23;;
12120;SDS011;6124;59.460;17.908;2023-02-12T03:20:15;2.33;;;1.10;;
12120;SDS011;6124;59.460;17.908;2023-02-12T03:22:45;3.00;;;1.17;;
12120;SDS011;6124;59.460;17.908;2023-02-12T03:25:15;4.43;;;1.10;;
12120;SDS011;6124;59.460;17.908;2023-02-12T03:27:46;2.13;;;1.10;;
12120;SDS011;6124;59.460;17.908;2023-02-12T03:32:44;4.40;;;1.57;;
12120;SDS011;6124;59.460;17.908;2023-02-12T03:35:15;2.37;;;0.97;;
12120;SDS011;6124;59.460;17.908;2023-02-12T03:37:45;3.57;;;1.40;;
12120;SDS011;6124;59.460;17.908;2023-02-12T03:40:16;3.23;;;1.10;;
12120;SDS011;6124;59.460;17.908;2023-02-12T03:42:47;4.10;;;1.40;;
12120;SDS011;6124;59.460;17.908;2023-02-12T03:45:20;2.63;;;1.10;;
12120;SDS011;6124;59.460;17.908;2023-02-12T03:47:49;1.83;;;1.10;;
12120;SDS011;6124;59.460;17.908;2023-02-12T03:50:20;7.30;;;1.57;;
12120;SDS011;6124;59.460;17.908;2023-02-12T03:52:53;4.33;;;1.27;;
12120;SDS011;6124;59.460;17.908;2023-02-12T03:55:20;2.00;;;1.00;;
12120;SDS011;6124;59.460;17.908;2023-02-12T03:57:48;3.93;;;1.30;;
12120;SDS011;6124;59.460;17.908;2023-02-12T04:00:18;4.30;;;1.47;;
12120;SDS011;6124;59.460;17.908;2023-02-12T04:02:46;2.73;;;1.23;;
12120;SDS011;6124;59.460;17.908;2023-02-12T04:05:19;6.13;;;1.23;;
12120;SDS011;6124;59.460;17.908;2023-02-12T04:07:46;3.43;;;1.30;;
12120;SDS011;6124;59.460;17.908;2023-02-12T04:10:14;2.83;;;1.13;;
12120;SDS011;6124;59.460;17.908;2023-02-12T04:12:43;4.07;;;1.30;;
12120;SDS011;6124;59.460;17.908;2023-02-12T04:15:15;2.33;;;1.03;;
12120;SDS011;6124;59.460;17.908;2023-02-12T04:17:49;3.67;;;1.17;;
12120;SDS011;6124;59.460;17.908;2023-02-12T04:20:23;4.27;;;1.23;;
12120;SDS011;6124;59.460;17.908;2023-02-12T04:22:53;3.20;;;1.27;;
12120;SDS011;6124;59.460;17.908;2023-02-12T04:25:26;3.97;;;1.53;;
12120;SDS011;6124;59.460;17.908;2023-02-12T04:27:59;2.93;;;1.30;;
12120;SDS011;6124;59.460;17.908;2023-02-12T04:30:32;2.73;;;1.00;;
12120;SDS011;6124;59.460;17.908;2023-02-12T04:33:01;5.23;;;1.30;;
12120;SDS011;6124;59.460;17.908;2023-02-12T04:35:32;1.77;;;0.90;;
12120;SDS011;6124;59.460;17.908;2023-02-12T04:38:03;2.80;;;1.20;;
12120;SDS011;6124;59.460;17.908;2023-02-12T04:40:32;5.20;;;1.60;;
12120;SDS011;6124;59.460;17.908;2023-02-12T04:43:00;1.47;;;0.90;;
12120;SDS011;6124;59.460;17.908;2023-02-12T04:45:28;6.40;;;1.83;;
12120;SDS011;6124;59.460;17.908;2023-02-12T04:47:57;3.20;;;1.20;;
12120;SDS011;6124;59.460;17.908;2023-02-12T04:50:25;2.97;;;1.30;;
12120;SDS011;6124;59.460;17.908;2023-02-12T04:52:54;3.87;;;1.10;;
12120;SDS011;6124;59.460;17.908;2023-02-12T04:55:21;3.17;;;1.00;;
12120;SDS011;6124;59.460;17.908;2023-02-12T04:57:49;2.63;;;1.33;;
12120;SDS011;6124;59.460;17.908;2023-02-12T05:00:16;3.60;;;1.30;;
12120;SDS011;6124;59.460;17.908;2023-02-12T05:02:44;2.90;;;1.00;;
12120;SDS011;6124;59.460;17.908;2023-02-12T05:05:11;4.20;;;1.10;;
12120;SDS011;6124;59.460;17.908;2023-02-12T05:07:38;3.17;;;1.20;;
12120;SDS011;6124;59.460;17.908;2023-02-12T05:10:08;2.77;;;1.20;;
12120;SDS011;6124;59.460;17.908;2023-02-12T05:12:35;4.50;;;1.60;;
12120;SDS011;6124;59.460;17.908;2023-02-12T05:15:02;3.93;;;1.60;;
12120;SDS011;6124;59.460;17.908;2023-02-12T05:17:30;3.30;;;1.23;;
12120;SDS011;6124;59.460;17.908;2023-02-12T05:19:57;7.27;;;1.60;;
12120;SDS011;6124;59.460;17.908;2023-02-12T05:22:25;3.83;;;1.13;;
12120;SDS011;6124;59.460;17.908;2023-02-12T05:24:52;3.20;;;1.30;;
12120;SDS011;6124;59.460;17.908;2023-02-12T05:27:21;4.97;;;1.60;;
12120;SDS011;6124;59.460;17.908;2023-02-12T05:29:48;4.07;;;1.50;;
12120;SDS011;6124;59.460;17.908;2023-02-12T05:32:15;5.43;;;1.60;;
12120;SDS011;6124;59.460;17.908;2023-02-12T05:34:43;4.53;;;1.40;;
12120;SDS011;6124;59.460;17.908;2023-02-12T05:37:10;4.83;;;1.40;;
12120;SDS011;6124;59.460;17.908;2023-02-12T05:39:37;2.90;;;1.40;;
12120;SDS011;6124;59.460;17.908;2023-02-12T05:42:05;3.07;;;1.43;;
12120;SDS011;6124;59.460;17.908;2023-02-12T05:44:33;5.77;;;1.47;;
12120;SDS011;6124;59.460;17.908;2023-02-12T05:47:01;5.07;;;1.40;;
12120;SDS011;6124;59.460;17.908;2023-02-12T05:49:29;2.57;;;1.20;;
12120;SDS011;6124;59.460;17.908;2023-02-12T05:51:56;5.00;;;1.50;;
12120;SDS011;6124;59.460;17.908;2023-02-12T05:54:23;3.73;;;1.87;;
12120;SDS011;6124;59.460;17.908;2023-02-12T05:56:51;4.33;;;1.57;;
12120;SDS011;6124;59.460;17.908;2023-02-12T05:59:19;4.30;;;1.47;;
12120;SDS011;6124;59.460;17.908;2023-02-12T06:01:49;6.60;;;1.40;;
12120;SDS011;6124;59.460;17.908;2023-02-12T06:04:17;4.30;;;1.57;;
12120;SDS011;6124;59.460;17.908;2023-02-12T06:06:45;4.63;;;1.40;;
12120;SDS011;6124;59.460;17.908;2023-02-12T06:09:13;4.77;;;1.57;;
12120;SDS011;6124;59.460;17.908;2023-02-12T06:11:40;5.00;;;1.63;;
12120;SDS011;6124;59.460;17.908;2023-02-12T06:14:09;3.43;;;1.40;;
12120;SDS011;6124;59.460;17.908;2023-02-12T06:16:37;4.03;;;1.80;;
12120;SDS011;6124;59.460;17.908;2023-02-12T06:19:06;3.03;;;1.60;;
12120;SDS011;6124;59.460;17.908;2023-02-12T06:21:33;7.53;;;1.70;;
12120;SDS011;6124;59.460;17.908;2023-02-12T06:24:00;3.77;;;1.40;;
12120;SDS011;6124;59.460;17.908;2023-02-12T06:26:28;4.47;;;1.47;;
12120;SDS011;6124;59.460;17.908;2023-02-12T06:28:56;3.00;;;1.30;;
12120;SDS011;6124;59.460;17.908;2023-02-12T06:31:24;3.53;;;1.70;;
12120;SDS011;6124;59.460;17.908;2023-02-12T06:33:52;4.67;;;1.30;;
12120;SDS011;6124;59.460;17.908;2023-02-12T06:36:21;3.33;;;1.40;;
12120;SDS011;6124;59.460;17.908;2023-02-12T06:38:48;4.87;;;1.47;;
12120;SDS011;6124;59.460;17.908;2023-02-12T06:41:16;3.20;;;1.20;;
12120;SDS011;6124;59.460;17.908;2023-02-12T06:43:44;7.13;;;1.60;;
12120;SDS011;6124;59.460;17.908;2023-02-12T06:46:13;3.60;;;1.50;;
12120;SDS011;6124;59.460;17.908;2023-02-12T06:48:40;5.23;;;1.70;;
12120;SDS011;6124;59.460;17.908;2023-02-12T06:51:08;4.57;;;1.50;;
12120;SDS011;6124;59.460;17.908;2023-02-12T06:53:37;6.03;;;1.80;;
12120;SDS011;6124;59.460;17.908;2023-02-12T06:56:05;3.53;;;1.50;;
12120;SDS011;6124;59.460;17.908;2023-02-12T06:58:36;5.40;;;1.47;;
12120;SDS011;6124;59.460;17.908;2023-02-12T07:01:07;4.93;;;1.60;;
12120;SDS011;6124;59.460;17.908;2023-02-12T07:03:37;3.40;;;1.60;;
12120;SDS011;6124;59.460;17.908;2023-02-12T07:06:04;6.60;;;1.47;;
12120;SDS011;6124;59.460;17.908;2023-02-12T07:08:32;4.47;;;1.80;;
12120;SDS011;6124;59.460;17.908;2023-02-12T07:11:00;3.07;;;1.40;;
12120;SDS011;6124;59.460;17.908;2023-02-12T07:13:28;3.40;;;1.80;;
12120;SDS011;6124;59.460;17.908;2023-02-12T07:15:56;6.03;;;1.73;;
12120;SDS011;6124;59.460;17.908;2023-02-12T07:18:24;3.60;;;1.57;;
12120;SDS011;6124;59.460;17.908;2023-02-12T07:20:51;5.00;;;1.60;;
12120;SDS011;6124;59.460;17.908;2023-02-12T07:23:21;4.90;;;1.50;;
12120;SDS011;6124;59.460;17.908;2023-02-12T07:25:53;4.07;;;1.70;;
12120;SDS011;6124;59.460;17.908;2023-02-12T07:28:21;7.07;;;1.63;;
12120;SDS011;6124;59.460;17.908;2023-02-12T07:30:49;8.43;;;1.83;;
12120;SDS011;6124;59.460;17.908;2023-02-12T07:33:16;3.47;;;1.50;;
12120;SDS011;6124;59.460;17.908;2023-02-12T07:35:44;3.40;;;1.40;;
12120;SDS011;6124;59.460;17.908;2023-02-12T07:38:12;5.33;;;1.70;;
12120;SDS011;6124;59.460;17.908;2023-02-12T07:40:39;5.67;;;1.90;;
12120;SDS011;6124;59.460;17.908;2023-02-12T07:43:06;3.47;;;1.47;;
12120;SDS011;6124;59.460;17.908;2023-02-12T07:45:35;3.80;;;2.17;;
12120;SDS011;6124;59.460;17.908;2023-02-12T07:48:02;6.20;;;1.70;;
12120;SDS011;6124;59.460;17.908;2023-02-12T07:50:30;7.20;;;2.07;;
12120;SDS011;6124;59.460;17.908;2023-02-12T07:52:57;4.20;;;1.70;;
12120;SDS011;6124;59.460;17.908;2023-02-12T07:55:24;3.60;;;1.70;;
12120;SDS011;6124;59.460;17.908;2023-02-12T07:57:52;4.03;;;1.67;;
12120;SDS011;6124;59.460;17.908;2023-02-12T08:00:19;6.10;;;2.13;;
12120;SDS011;6124;59.460;17.908;2023-02-12T08:02:51;4.77;;;1.93;;
12120;SDS011;6124;59.460;17.908;2023-02-12T08:05:19;4.87;;;1.70;;
12120;SDS011;6124;59.460;17.908;2023-02-12T08:07:46;7.07;;;1.90;;
12120;SDS011;6124;59.460;17.908;2023-02-12T08:10:14;3.80;;;2.10;;
12120;SDS011;6124;59.460;17.908;2023-02-12T08:12:44;7.17;;;2.20;;
12120;SDS011;6124;59.460;17.908;2023-02-12T08:15:12;5.80;;;1.90;;
12120;SDS011;6124;59.460;17.908;2023-02-12T08:17:39;11.13;;;2.17;;
12120;SDS011;6124;59.460;17.908;2023-02-12T08:20:09;6.33;;;2.33;;
12120;SDS011;6124;59.460;17.908;2023-02-12T08:22:36;8.87;;;2.50;;
12120;SDS011;6124;59.460;17.908;2023-02-12T08:25:05;6.67;;;2.27;;
12120;SDS011;6124;59.460;17.908;2023-02-12T08:27:32;5.50;;;2.00;;
12120;SDS011;6124;59.460;17.908;2023-02-12T08:30:00;4.77;;;2.03;;
12120;SDS011;6124;59.460;17.908;2023-02-12T08:32:27;7.00;;;2.00;;
12120;SDS011;6124;59.460;17.908;2023-02-12T08:34:56;6.63;;;2.33;;
12120;SDS011;6124;59.460;17.908;2023-02-12T08:37:25;6.40;;;2.03;;
12120;SDS011;6124;59.460;17.908;2023-02-12T08:39:52;5.50;;;2.40;;
12120;SDS011;6124;59.460;17.908;2023-02-12T08:42:20;5.80;;;2.20;;
12120;SDS011;6124;59.460;17.908;2023-02-12T08:44:49;6.33;;;2.10;;
12120;SDS011;6124;59.460;17.908;2023-02-12T08:47:17;8.57;;;2.30;;
12120;SDS011;6124;59.460;17.908;2023-02-12T08:49:45;8.87;;;2.13;;
12120;SDS011;6124;59.460;17.908;2023-02-12T08:52:12;7.33;;;2.00;;
12120;SDS011;6124;59.460;17.908;2023-02-12T08:54:41;7.87;;;2.20;;
12120;SDS011;6124;59.460;17.908;2023-02-12T08:57:08;6.63;;;2.10;;
12120;SDS011;6124;59.460;17.908;2023-02-12T08:59:35;7.00;;;2.33;;
12120;SDS011;6124;59.460;17.908;2023-02-12T09:02:03;9.20;;;2.60;;
12120;SDS011;6124;59.460;17.908;2023-02-12T09:04:32;6.77;;;2.20;;
12120;SDS011;6124;59.460;17.908;2023-02-12T09:07:00;10.00;;;2.47;;
12120;SDS011;6124;59.460;17.908;2023-02-12T09:09:28;8.70;;;2.30;;
12120;SDS011;6124;59.460;17.908;2023-02-12T09:11:56;6.20;;;2.03;;
12120;SDS011;6124;59.460;17.908;2023-02-12T09:14:24;9.83;;;2.60;;
12120;SDS011;6124;59.460;17.908;2023-02-12T09:16:51;7.27;;;2.27;;
12120;SDS011;6124;59.460;17.908;2023-02-12T09:19:19;8.87;;;2.60;;
12120;SDS011;6124;59.460;17.908;2023-02-12T09:21:49;8.93;;;2.53;;
12120;SDS011;6124;59.460;17.908;2023-02-12T09:24:16;9.83;;;2.30;;
12120;SDS011;6124;59.460;17.908;2023-02-12T09:26:44;10.33;;;2.73;;
12120;SDS011;6124;59.460;17.908;2023-02-12T09:29:12;10.27;;;2.77;;
12120;SDS011;6124;59.460;17.908;2023-02-12T09:31:40;6.37;;;2.57;;
12120;SDS011;6124;59.460;17.908;2023-02-12T09:34:07;11.53;;;2.90;;
12120;SDS011;6124;59.460;17.908;2023-02-12T09:36:34;10.23;;;2.83;;
12120;SDS011;6124;59.460;17.908;2023-02-12T09:39:02;9.80;;;2.67;;
12120;SDS011;6124;59.460;17.908;2023-02-12T09:44:18;6.10;;;2.30;;
12120;SDS011;6124;59.460;17.908;2023-02-12T09:46:48;7.57;;;2.67;;
12120;SDS011;6124;59.460;17.908;2023-02-12T09:49:18;9.57;;;2.47;;
12120;SDS011;6124;59.460;17.908;2023-02-12T09:51:50;9.93;;;2.97;;
12120;SDS011;6124;59.460;17.908;2023-02-12T09:54:19;9.73;;;2.43;;
12120;SDS011;6124;59.460;17.908;2023-02-12T09:56:47;9.63;;;3.17;;
12120;SDS011;6124;59.460;17.908;2023-02-12T09:59:19;9.30;;;2.40;;
12120;SDS011;6124;59.460;17.908;2023-02-12T10:01:47;8.53;;;2.73;;
12120;SDS011;6124;59.460;17.908;2023-02-12T10:04:15;9.27;;;3.47;;
12120;SDS011;6124;59.460;17.908;2023-02-12T10:06:43;9.60;;;2.87;;
12120;SDS011;6124;59.460;17.908;2023-02-12T10:09:29;8.73;;;2.73;;
12120;SDS011;6124;59.460;17.908;2023-02-12T10:11:59;6.93;;;2.63;;
12120;SDS011;6124;59.460;17.908;2023-02-12T10:17:18;9.70;;;2.97;;
12120;SDS011;6124;59.460;17.908;2023-02-12T10:22:32;8.37;;;2.70;;
12120;SDS011;6124;59.460;17.908;2023-02-12T10:25:06;12.20;;;3.00;;
12120;SDS011;6124;59.460;17.908;2023-02-12T10:27:37;10.17;;;2.80;;
12120;SDS011;6124;59.460;17.908;2023-02-12T10:30:12;10.47;;;2.80;;
12120;SDS011;6124;59.460;17.908;2023-02-12T10:32:41;10.90;;;3.07;;
12120;SDS011;6124;59.460;17.908;2023-02-12T10:35:11;10.73;;;2.83;;
12120;SDS011;6124;59.460;17.908;2023-02-12T10:37:41;6.83;;;2.77;;
12120;SDS011;6124;59.460;17.908;2023-02-12T10:40:13;10.13;;;2.80;;
12120;SDS011;6124;59.460;17.908;2023-02-12T10:42:43;11.73;;;2.80;;
12120;SDS011;6124;59.460;17.908;2023-02-12T10:45:11;11.17;;;3.23;;
12120;SDS011;6124;59.460;17.908;2023-02-12T10:47:41;9.77;;;3.10;;
12120;SDS011;6124;59.460;17.908;2023-02-12T10:50:15;9.53;;;2.70;;
12120;SDS011;6124;59.460;17.908;2023-02-12T10:52:46;13.20;;;2.80;;
12120;SDS011;6124;59.460;17.908;2023-02-12T10:55:23;9.73;;;2.53;;
12120;SDS011;6124;59.460;17.908;2023-02-12T10:57:51;13.93;;;3.60;;
12120;SDS011;6124;59.460;17.908;2023-02-12T11:00:23;9.60;;;2.90;;
12120;SDS011;6124;59.460;17.908;2023-02-12T11:03:00;14.33;;;3.50;;
12120;SDS011;6124;59.460;17.908;2023-02-12T11:05:28;10.83;;;3.20;;
12120;SDS011;6124;59.460;17.908;2023-02-12T11:07:56;11.50;;;3.23;;
12120;SDS011;6124;59.460;17.908;2023-02-12T11:10:26;9.13;;;3.10;;
12120;SDS011;6124;59.460;17.908;2023-02-12T11:12:53;7.10;;;2.50;;
12120;SDS011;6124;59.460;17.908;2023-02-12T11:15:22;15.87;;;3.40;;
12120;SDS011;6124;59.460;17.908;2023-02-12T11:17:57;11.43;;;2.63;;
12120;SDS011;6124;59.460;17.908;2023-02-12T11:20:27;15.23;;;3.93;;
12120;SDS011;6124;59.460;17.908;2023-02-12T11:22:56;13.83;;;2.93;;
12120;SDS011;6124;59.460;17.908;2023-02-12T11:25:25;10.50;;;3.37;;
12120;SDS011;6124;59.460;17.908;2023-02-12T11:27:58;11.70;;;3.10;;
12120;SDS011;6124;59.460;17.908;2023-02-12T11:30:26;9.43;;;3.10;;
12120;SDS011;6124;59.460;17.908;2023-02-12T11:32:53;9.97;;;2.97;;
12120;SDS011;6124;59.460;17.908;2023-02-12T11:35:21;11.27;;;3.40;;
12120;SDS011;6124;59.460;17.908;2023-02-12T11:37:56;11.13;;;3.40;;
12120;SDS011;6124;59.460;17.908;2023-02-12T11:40:25;10.70;;;3.50;;
12120;SDS011;6124;59.460;17.908;2023-02-12T11:42:54;10.07;;;3.20;;
12120;SDS011;6124;59.460;17.908;2023-02-12T11:45:27;9.80;;;3.20;;
12120;SDS011;6124;59.460;17.908;2023-02-12T11:47:56;15.67;;;3.57;;
12120;SDS011;6124;59.460;17.908;2023-02-12T11:50:24;10.97;;;3.20;;
12120;SDS011;6124;59.460;17.908;2023-02-12T11:52:53;8.77;;;3.20;;
12120;SDS011;6124;59.460;17.908;2023-02-12T11:55:24;9.53;;;2.90;;
12120;SDS011;6124;59.460;17.908;2023-02-12T11:57:52;15.47;;;3.77;;
12120;SDS011;6124;59.460;17.908;2023-02-12T12:00:21;11.90;;;3.47;;
12120;SDS011;6124;59.460;17.908;2023-02-12T12:02:49;10.63;;;3.53;;
12120;SDS011;6124;59.460;17.908;2023-02-12T12:05:19;13.33;;;3.30;;
12120;SDS011;6124;59.460;17.908;2023-02-12T12:07:48;11.27;;;3.40;;
12120;SDS011;6124;59.460;17.908;2023-02-12T12:10:17;16.30;;;3.77;;
12120;SDS011;6124;59.460;17.908;2023-02-12T12:12:48;16.47;;;4.60;;
12120;SDS011;6124;59.460;17.908;2023-02-12T12:15:18;11.60;;;3.90;;
12120;SDS011;6124;59.460;17.908;2023-02-12T12:18:08;11.87;;;3.70;;
12120;SDS011;6124;59.460;17.908;2023-02-12T12:20:57;13.10;;;3.53;;
12120;SDS011;6124;59.460;17.908;2023-02-12T12:23:29;15.13;;;3.53;;
12120;SDS011;6124;59.460;17.908;2023-02-12T12:25:57;9.37;;;3.37;;
12120;SDS011;6124;59.460;17.908;2023-02-12T12:28:29;10.03;;;3.57;;
12120;SDS011;6124;59.460;17.908;2023-02-12T12:31:03;10.60;;;3.40;;
12120;SDS011;6124;59.460;17.908;2023-02-12T12:33:34;9.13;;;3.20;;
12120;SDS011;6124;59.460;17.908;2023-02-12T12:38:50;8.83;;;2.80;;
12120;SDS011;6124;59.460;17.908;2023-02-12T12:41:24;13.10;;;3.60;;
12120;SDS011;6124;59.460;17.908;2023-02-12T12:43:57;13.77;;;3.60;;
12120;SDS011;6124;59.460;17.908;2023-02-12T12:46:33;14.73;;;3.60;;
12120;SDS011;6124;59.460;17.908;2023-02-12T12:49:04;11.03;;;3.43;;
12120;SDS011;6124;59.460;17.908;2023-02-12T12:51:38;9.80;;;3.20;;
12120;SDS011;6124;59.460;17.908;2023-02-12T12:54:12;12.63;;;3.67;;
12120;SDS011;6124;59.460;17.908;2023-02-12T12:56:46;15.87;;;4.20;;
12120;SDS011;6124;59.460;17.908;2023-02-12T12:59:29;11.37;;;3.23;;
12120;SDS011;6124;59.460;17.908;2023-02-12T13:04:56;21.43;;;4.10;;
12120;SDS011;6124;59.460;17.908;2023-02-12T13:07:33;13.20;;;3.40;;
12120;SDS011;6124;59.460;17.908;2023-02-12T13:12:52;16.53;;;3.03;;
12120;SDS011;6124;59.460;17.908;2023-02-12T13:15:26;13.23;;;3.50;;
12120;SDS011;6124;59.460;17.908;2023-02-12T13:17:58;13.00;;;4.20;;
12120;SDS011;6124;59.460;17.908;2023-02-12T13:20:30;12.07;;;3.17;;
12120;SDS011;6124;59.460;17.908;2023-02-12T13:23:02;12.07;;;3.20;;
12120;SDS011;6124;59.460;17.908;2023-02-12T13:25:31;13.63;;;3.40;;
12120;SDS011;6124;59.460;17.908;2023-02-12T13:28:01;11.13;;;3.50;;
12120;SDS011;6124;59.460;17.908;2023-02-12T13:30:32;15.43;;;3.60;;
12120;SDS011;6124;59.460;17.908;2023-02-12T13:33:05;10.07;;;3.23;;
12120;SDS011;6124;59.460;17.908;2023-02-12T13:35:33;12.80;;;3.30;;
12120;SDS011;6124;59.460;17.908;2023-02-12T13:38:01;12.10;;;3.53;;
12120;SDS011;6124;59.460;17.908;2023-02-12T13:40:29;14.50;;;3.80;;
12120;SDS011;6124;59.460;17.908;2023-02-12T13:42:59;10.60;;;3.77;;
12120;SDS011;6124;59.460;17.908;2023-02-12T13:45:37;10.00;;;3.47;;
12120;SDS011;6124;59.460;17.908;2023-02-12T13:48:19;11.43;;;4.27;;
12120;SDS011;6124;59.460;17.908;2023-02-12T13:50:50;10.43;;;3.37;;
12120;SDS011;6124;59.460;17.908;2023-02-12T13:53:24;14.47;;;3.73;;
12120;SDS011;6124;59.460;17.908;2023-02-12T13:55:56;14.97;;;4.80;;
12120;SDS011;6124;59.460;17.908;2023-02-12T13:58:38;11.43;;;3.40;;
12120;SDS011;6124;59.460;17.908;2023-02-12T14:01:07;13.20;;;4.30;;
12120;SDS011;6124;59.460;17.908;2023-02-12T14:03:36;14.67;;;3.70;;
12120;SDS011;6124;59.460;17.908;2023-02-12T14:06:09;12.97;;;3.43;;
12120;SDS011;6124;59.460;17.908;2023-02-12T14:08:37;13.70;;;3.60;;
12120;SDS011;6124;59.460;17.908;2023-02-12T14:11:07;15.33;;;3.80;;
12120;SDS011;6124;59.460;17.908;2023-02-12T14:13:35;15.67;;;4.37;;
12120;SDS011;6124;59.460;17.908;2023-02-12T14:16:23;15.77;;;3.90;;
12120;SDS011;6124;59.460;17.908;2023-02-12T14:21:44;9.23;;;3.20;;
12120;SDS011;6124;59.460;17.908;2023-02-12T14:26:57;14.30;;;3.90;;
12120;SDS011;6124;59.460;17.908;2023-02-12T14:29:25;13.03;;;4.30;;
12120;SDS011;6124;59.460;17.908;2023-02-12T14:31:53;15.43;;;4.23;;
12120;SDS011;6124;59.460;17.908;2023-02-12T14:37:17;9.93;;;3.60;;
12120;SDS011;6124;59.460;17.908;2023-02-12T14:42:52;10.37;;;3.67;;
12120;SDS011;6124;59.460;17.908;2023-02-12T14:48:10;13.63;;;3.93;;
12120;SDS011;6124;59.460;17.908;2023-02-12T14:50:59;11.47;;;3.77;;
12120;SDS011;6124;59.460;17.908;2023-02-12T14:53:28;11.70;;;3.67;;
12120;SDS011;6124;59.460;17.908;2023-02-12T14:55:56;15.50;;;3.67;;
12120;SDS011;6124;59.460;17.908;2023-02-12T14:58:25;15.73;;;4.83;;
12120;SDS011;6124;59.460;17.908;2023-02-12T15:00:55;10.57;;;3.50;;
12120;SDS011;6124;59.460;17.908;2023-02-12T15:03:28;11.07;;;3.50;;
12120;SDS011;6124;59.460;17.908;2023-02-12T15:06:03;12.97;;;3.83;;
12120;SDS011;6124;59.460;17.908;2023-02-12T15:08:33;11.77;;;3.80;;
12120;SDS011;6124;59.460;17.908;2023-02-12T15:11:11;13.60;;;3.67;;
12120;SDS011;6124;59.460;17.908;2023-02-12T15:13:47;15.00;;;3.73;;
12120;SDS011;6124;59.460;17.908;2023-02-12T15:16:16;12.03;;;3.60;;
12120;SDS011;6124;59.460;17.908;2023-02-12T15:18:50;14.17;;;3.77;;
12120;SDS011;6124;59.460;17.908;2023-02-12T15:21:20;14.67;;;3.70;;
12120;SDS011;6124;59.460;17.908;2023-02-12T15:23:56;13.80;;;3.97;;
12120;SDS011;6124;59.460;17.908;2023-02-12T15:26:26;14.37;;;4.40;;
12120;SDS011;6124;59.460;17.908;2023-02-12T15:28:54;11.47;;;3.60;;
12120;SDS011;6124;59.460;17.908;2023-02-12T15:31:24;17.97;;;5.27;;
12120;SDS011;6124;59.460;17.908;2023-02-12T15:33:53;18.07;;;5.83;;
12120;SDS011;6124;59.460;17.908;2023-02-12T15:36:23;15.87;;;7.17;;